sensor_id;sensor_type;location;lat;lon;timestamp;temperature;humidity
7325;DHT22;3703;48.016;7.802;2023-04-25T00:01:58;10.70;99.90
7325;DHT22;3703;48.016;7.802;2023-04-25T00:04:46;10.60;99.90
7325;DHT22;3703;48.016;7.802;2023-04-25T00:07:37;10.40;99.90
7325;DHT22;3703;48.016;7.802;2023-04-25T00:10:24;10.40;99.90
7325;DHT22;3703;48.016;7.802;2023-04-25T00:13:12;10.50;99.90
7325;DHT22;3703;48.016;7.802;2023-04-25T00:16:00;10.60;99.90
7325;DHT22;3703;48.016;7.802;2023-04-25T00:18:48;10.60;99.90
7325;DHT22;3703;48.016;7.802;2023-04-25T00:21:39;10.50;99.90
7325;DHT22;3703;48.016;7.802;2023-04-25T00:24:28;10.50;99.90
7325;DHT22;3703;48.016;7.802;2023-04-25T00:27:16;10.40;99.90
7325;DHT22;3703;48.016;7.802;2023-04-25T00:30:05;10.30;99.90
7325;DHT22;3703;48.016;7.802;2023-04-25T00:32:53;10.30;99.90
7325;DHT22;3703;48.016;7.802;2023-04-25T00:35:40;10.40;99.90
7325;DHT22;3703;48.016;7.802;2023-04-25T00:38:28;10.50;99.90
7325;DHT22;3703;48.016;7.802;2023-04-25T00:41:17;10.60;99.90
7325;DHT22;3703;48.016;7.802;2023-04-25T00:44:05;10.40;99.90
7325;DHT22;3703;48.016;7.802;2023-04-25T00:46:57;10.50;99.90
7325;DHT22;3703;48.016;7.802;2023-04-25T00:49:45;10.40;99.90
7325;DHT22;3703;48.016;7.802;2023-04-25T00:52:32;10.40;99.90
7325;DHT22;3703;48.016;7.802;2023-04-25T00:55:20;10.30;99.90
7325;DHT22;3703;48.016;7.802;2023-04-25T00:58:09;10.20;99.90
7325;DHT22;3703;48.016;7.802;2023-04-25T01:00:57;10.20;99.90
7325;DHT22;3703;48.016;7.802;2023-04-25T01:03:46;10.10;99.90
7325;DHT22;3703;48.016;7.802;2023-04-25T01:06:35;9.70;99.90
7325;DHT22;3703;48.016;7.802;2023-04-25T01:09:23;10.10;99.90
7325;DHT22;3703;48.016;7.802;2023-04-25T01:12:11;10.00;99.90
7325;DHT22;3703;48.016;7.802;2023-04-25T01:15:01;10.10;99.90
7325;DHT22;3703;48.016;7.802;2023-04-25T01:17:49;10.20;99.90
7325;DHT22;3703;48.016;7.802;2023-04-25T01:20:37;10.00;99.90
7325;DHT22;3703;48.016;7.802;2023-04-25T01:23:27;10.30;99.90
7325;DHT22;3703;48.016;7.802;2023-04-25T01:26:15;9.90;99.90
7325;DHT22;3703;48.016;7.802;2023-04-25T01:29:04;10.10;99.90
7325;DHT22;3703;48.016;7.802;2023-04-25T01:31:52;10.30;99.90
7325;DHT22;3703;48.016;7.802;2023-04-25T01:34:40;10.30;99.90
7325;DHT22;3703;48.016;7.802;2023-04-25T01:37:27;10.50;99.90
7325;DHT22;3703;48.016;7.802;2023-04-25T01:40:17;10.30;99.90
7325;DHT22;3703;48.016;7.802;2023-04-25T01:43:05;10.40;99.90
7325;DHT22;3703;48.016;7.802;2023-04-25T01:45:54;10.40;99.90
7325;DHT22;3703;48.016;7.802;2023-04-25T01:48:43;10.50;99.90
7325;DHT22;3703;48.016;7.802;2023-04-25T01:51:31;10.80;99.90
7325;DHT22;3703;48.016;7.802;2023-04-25T01:54:19;11.00;99.90
7325;DHT22;3703;48.016;7.802;2023-04-25T01:57:08;10.80;99.90
7325;DHT22;3703;48.016;7.802;2023-04-25T01:59:58;10.80;99.90
7325;DHT22;3703;48.016;7.802;2023-04-25T02:02:47;11.00;99.90
7325;DHT22;3703;48.016;7.802;2023-04-25T02:05:37;10.80;99.90
7325;DHT22;3703;48.016;7.802;2023-04-25T02:08:25;11.00;99.90
7325;DHT22;3703;48.016;7.802;2023-04-25T02:11:12;11.00;99.90
7325;DHT22;3703;48.016;7.802;2023-04-25T02:14:01;11.00;99.90
7325;DHT22;3703;48.016;7.802;2023-04-25T02:16:49;11.20;99.90
7325;DHT22;3703;48.016;7.802;2023-04-25T02:19:37;11.50;99.90
7325;DHT22;3703;48.016;7.802;2023-04-25T02:22:24;11.30;99.90
7325;DHT22;3703;48.016;7.802;2023-04-25T02:25:12;11.10;99.90
7325;DHT22;3703;48.016;7.802;2023-04-25T02:28:01;10.80;99.90
7325;DHT22;3703;48.016;7.802;2023-04-25T02:30:50;10.60;99.90
7325;DHT22;3703;48.016;7.802;2023-04-25T02:33:38;10.30;99.90
7325;DHT22;3703;48.016;7.802;2023-04-25T02:36:25;10.30;99.90
7325;DHT22;3703;48.016;7.802;2023-04-25T02:39:13;10.00;99.90
7325;DHT22;3703;48.016;7.802;2023-04-25T02:42:01;10.10;99.90
7325;DHT22;3703;48.016;7.802;2023-04-25T02:44:48;10.50;99.90
7325;DHT22;3703;48.016;7.802;2023-04-25T02:47:37;10.20;99.90
7325;DHT22;3703;48.016;7.802;2023-04-25T02:50:25;10.70;99.90
7325;DHT22;3703;48.016;7.802;2023-04-25T02:53:12;10.50;99.90
7325;DHT22;3703;48.016;7.802;2023-04-25T02:56:00;10.50;99.90
7325;DHT22;3703;48.016;7.802;2023-04-25T02:58:47;10.50;99.90
7325;DHT22;3703;48.016;7.802;2023-04-25T03:01:35;10.50;99.90
7325;DHT22;3703;48.016;7.802;2023-04-25T03:04:24;10.10;99.90
7325;DHT22;3703;48.016;7.802;2023-04-25T03:07:12;10.40;99.90
7325;DHT22;3703;48.016;7.802;2023-04-25T03:09:59;10.50;99.90
7325;DHT22;3703;48.016;7.802;2023-04-25T03:12:46;10.40;99.90
7325;DHT22;3703;48.016;7.802;2023-04-25T03:15:34;10.30;99.90
7325;DHT22;3703;48.016;7.802;2023-04-25T03:18:22;10.40;99.90
7325;DHT22;3703;48.016;7.802;2023-04-25T03:21:11;10.10;99.90
7325;DHT22;3703;48.016;7.802;2023-04-25T03:23:58;10.40;99.90
7325;DHT22;3703;48.016;7.802;2023-04-25T03:26:47;10.40;99.90
7325;DHT22;3703;48.016;7.802;2023-04-25T03:29:35;10.70;99.90
7325;DHT22;3703;48.016;7.802;2023-04-25T03:32:22;10.50;99.90
7325;DHT22;3703;48.016;7.802;2023-04-25T03:35:10;10.70;99.90
7325;DHT22;3703;48.016;7.802;2023-04-25T03:37:59;10.70;99.90
7325;DHT22;3703;48.016;7.802;2023-04-25T03:40:46;10.70;99.90
7325;DHT22;3703;48.016;7.802;2023-04-25T03:43:34;10.80;99.90
7325;DHT22;3703;48.016;7.802;2023-04-25T03:46:21;10.60;99.90
7325;DHT22;3703;48.016;7.802;2023-04-25T03:49:09;10.80;99.90
7325;DHT22;3703;48.016;7.802;2023-04-25T03:51:56;10.60;99.90
7325;DHT22;3703;48.016;7.802;2023-04-25T03:54:45;10.50;99.90
7325;DHT22;3703;48.016;7.802;2023-04-25T03:57:33;10.80;99.90
7325;DHT22;3703;48.016;7.802;2023-04-25T04:00:20;10.50;99.90
7325;DHT22;3703;48.016;7.802;2023-04-25T04:03:08;10.60;99.90
7325;DHT22;3703;48.016;7.802;2023-04-25T04:08:45;10.30;99.90
7325;DHT22;3703;48.016;7.802;2023-04-25T04:11:34;10.40;99.90
7325;DHT22;3703;48.016;7.802;2023-04-25T04:14:24;10.60;99.90
7325;DHT22;3703;48.016;7.802;2023-04-25T04:17:11;10.60;99.90
7325;DHT22;3703;48.016;7.802;2023-04-25T04:19:59;10.40;99.90
7325;DHT22;3703;48.016;7.802;2023-04-25T04:22:46;10.60;99.90
7325;DHT22;3703;48.016;7.802;2023-04-25T04:28:24;10.90;99.90
7325;DHT22;3703;48.016;7.802;2023-04-25T04:34:03;10.80;99.90
7325;DHT22;3703;48.016;7.802;2023-04-25T04:39:38;11.00;99.90
7325;DHT22;3703;48.016;7.802;2023-04-25T04:42:26;11.10;99.90
7325;DHT22;3703;48.016;7.802;2023-04-25T04:45:15;11.20;99.90
7325;DHT22;3703;48.016;7.802;2023-04-25T04:48:03;11.00;99.90
7325;DHT22;3703;48.016;7.802;2023-04-25T04:50:51;9.60;99.90
7325;DHT22;3703;48.016;7.802;2023-04-25T04:53:39;11.70;99.90
7325;DHT22;3703;48.016;7.802;2023-04-25T04:56:29;11.90;99.90
7325;DHT22;3703;48.016;7.802;2023-04-25T04:59:17;12.20;99.90
7325;DHT22;3703;48.016;7.802;2023-04-25T05:02:06;12.10;99.90
7325;DHT22;3703;48.016;7.802;2023-04-25T05:04:55;12.10;99.90
7325;DHT22;3703;48.016;7.802;2023-04-25T05:07:43;12.10;99.90
7325;DHT22;3703;48.016;7.802;2023-04-25T05:10:30;12.20;99.90
7325;DHT22;3703;48.016;7.802;2023-04-25T05:13:18;12.20;99.90
7325;DHT22;3703;48.016;7.802;2023-04-25T05:16:06;12.00;99.90
7325;DHT22;3703;48.016;7.802;2023-04-25T05:18:55;11.80;99.90
7325;DHT22;3703;48.016;7.802;2023-04-25T05:21:42;10.70;99.90
7325;DHT22;3703;48.016;7.802;2023-04-25T05:24:30;9.40;99.90
7325;DHT22;3703;48.016;7.802;2023-04-25T05:27:18;9.20;99.90
7325;DHT22;3703;48.016;7.802;2023-04-25T05:30:06;9.00;99.90
7325;DHT22;3703;48.016;7.802;2023-04-25T05:35:44;8.90;99.90
7325;DHT22;3703;48.016;7.802;2023-04-25T05:52:32;7.90;99.90
7325;DHT22;3703;48.016;7.802;2023-04-25T06:09:21;7.60;99.90
7325;DHT22;3703;48.016;7.802;2023-04-25T06:26:10;8.80;99.90
7325;DHT22;3703;48.016;7.802;2023-04-25T06:42:58;11.20;99.90
7325;DHT22;3703;48.016;7.802;2023-04-25T06:45:46;10.30;99.90
7325;DHT22;3703;48.016;7.802;2023-04-25T06:48:33;10.40;99.90
7325;DHT22;3703;48.016;7.802;2023-04-25T06:51:21;10.70;99.90
7325;DHT22;3703;48.016;7.802;2023-04-25T06:59:48;9.90;99.90
7325;DHT22;3703;48.016;7.802;2023-04-25T07:10:59;10.10;99.90
7325;DHT22;3703;48.016;7.802;2023-04-25T07:13:46;9.50;99.90
7325;DHT22;3703;48.016;7.802;2023-04-25T07:16:35;9.60;99.90
7325;DHT22;3703;48.016;7.802;2023-04-25T07:22:12;9.90;99.90
7325;DHT22;3703;48.016;7.802;2023-04-25T07:27:48;9.80;99.90
7325;DHT22;3703;48.016;7.802;2023-04-25T07:33:25;9.50;99.90
7325;DHT22;3703;48.016;7.802;2023-04-25T07:36:12;9.90;99.90
7325;DHT22;3703;48.016;7.802;2023-04-25T07:41:49;9.50;99.90
7325;DHT22;3703;48.016;7.802;2023-04-25T07:50:15;10.40;99.90
7325;DHT22;3703;48.016;7.802;2023-04-25T07:53:02;10.80;99.90
7325;DHT22;3703;48.016;7.802;2023-04-25T08:01:26;11.60;99.90
7325;DHT22;3703;48.016;7.802;2023-04-25T08:04:14;11.20;99.90
7325;DHT22;3703;48.016;7.802;2023-04-25T08:07:03;11.40;99.90
7325;DHT22;3703;48.016;7.802;2023-04-25T08:15:26;12.60;99.90
7325;DHT22;3703;48.016;7.802;2023-04-25T08:18:13;11.80;99.90
7325;DHT22;3703;48.016;7.802;2023-04-25T08:21:01;11.80;99.90
7325;DHT22;3703;48.016;7.802;2023-04-25T08:23:50;12.10;99.90
7325;DHT22;3703;48.016;7.802;2023-04-25T08:26:37;12.40;99.90
7325;DHT22;3703;48.016;7.802;2023-04-25T08:29:26;12.30;99.90
7325;DHT22;3703;48.016;7.802;2023-04-25T08:32:14;12.70;99.90
7325;DHT22;3703;48.016;7.802;2023-04-25T08:35:01;13.00;99.90
7325;DHT22;3703;48.016;7.802;2023-04-25T08:37:49;12.70;99.90
7325;DHT22;3703;48.016;7.802;2023-04-25T08:40:39;12.90;99.90
7325;DHT22;3703;48.016;7.802;2023-04-25T08:43:29;12.40;99.90
7325;DHT22;3703;48.016;7.802;2023-04-25T08:46:18;12.60;99.90
7325;DHT22;3703;48.016;7.802;2023-04-25T08:49:07;10.90;99.90
7325;DHT22;3703;48.016;7.802;2023-04-25T08:51:59;10.10;99.90
7325;DHT22;3703;48.016;7.802;2023-04-25T08:54:48;10.40;99.90
7325;DHT22;3703;48.016;7.802;2023-04-25T08:57:38;9.90;99.90
7325;DHT22;3703;48.016;7.802;2023-04-25T09:00:28;10.30;99.90
7325;DHT22;3703;48.016;7.802;2023-04-25T09:03:16;10.90;99.90
7325;DHT22;3703;48.016;7.802;2023-04-25T09:06:04;10.50;99.90
7325;DHT22;3703;48.016;7.802;2023-04-25T09:08:51;10.60;99.90
7325;DHT22;3703;48.016;7.802;2023-04-25T09:11:40;10.60;99.90
7325;DHT22;3703;48.016;7.802;2023-04-25T09:14:29;10.20;99.90
7325;DHT22;3703;48.016;7.802;2023-04-25T09:17:18;10.20;99.90
7325;DHT22;3703;48.016;7.802;2023-04-25T09:20:11;9.90;99.90
7325;DHT22;3703;48.016;7.802;2023-04-25T09:23:03;9.80;99.90
7325;DHT22;3703;48.016;7.802;2023-04-25T09:25:53;10.10;99.90
7325;DHT22;3703;48.016;7.802;2023-04-25T09:28:41;10.20;99.90
7325;DHT22;3703;48.016;7.802;2023-04-25T09:31:33;10.10;99.90
7325;DHT22;3703;48.016;7.802;2023-04-25T09:34:20;11.30;99.90
7325;DHT22;3703;48.016;7.802;2023-04-25T09:37:09;10.40;99.90
7325;DHT22;3703;48.016;7.802;2023-04-25T09:39:58;10.70;99.90
7325;DHT22;3703;48.016;7.802;2023-04-25T09:42:48;10.90;99.90
7325;DHT22;3703;48.016;7.802;2023-04-25T09:45:41;11.00;99.90
7325;DHT22;3703;48.016;7.802;2023-04-25T09:48:33;11.20;99.90
7325;DHT22;3703;48.016;7.802;2023-04-25T09:51:24;11.40;99.90
7325;DHT22;3703;48.016;7.802;2023-04-25T09:54:13;11.40;99.90
7325;DHT22;3703;48.016;7.802;2023-04-25T09:57:04;11.20;99.90
7325;DHT22;3703;48.016;7.802;2023-04-25T10:00:00;11.50;99.90
7325;DHT22;3703;48.016;7.802;2023-04-25T10:02:51;11.60;99.90
7325;DHT22;3703;48.016;7.802;2023-04-25T10:05:41;11.20;99.90
7325;DHT22;3703;48.016;7.802;2023-04-25T10:08:32;11.20;99.90
7325;DHT22;3703;48.016;7.802;2023-04-25T10:11:20;11.70;99.90
7325;DHT22;3703;48.016;7.802;2023-04-25T10:14:09;12.40;99.90
7325;DHT22;3703;48.016;7.802;2023-04-25T10:16:57;12.80;99.90
7325;DHT22;3703;48.016;7.802;2023-04-25T10:19:46;13.20;99.90
7325;DHT22;3703;48.016;7.802;2023-04-25T10:22:37;13.40;99.90
7325;DHT22;3703;48.016;7.802;2023-04-25T10:25:26;13.70;99.90
7325;DHT22;3703;48.016;7.802;2023-04-25T10:28:14;14.60;99.90
7325;DHT22;3703;48.016;7.802;2023-04-25T10:31:03;15.30;99.90
7325;DHT22;3703;48.016;7.802;2023-04-25T10:33:51;15.70;99.90
7325;DHT22;3703;48.016;7.802;2023-04-25T10:36:40;15.70;99.90
7325;DHT22;3703;48.016;7.802;2023-04-25T10:39:32;15.40;99.90
7325;DHT22;3703;48.016;7.802;2023-04-25T10:42:21;15.60;99.90
7325;DHT22;3703;48.016;7.802;2023-04-25T10:45:09;15.50;99.90
7325;DHT22;3703;48.016;7.802;2023-04-25T10:47:57;15.50;99.90
7325;DHT22;3703;48.016;7.802;2023-04-25T10:50:44;15.30;99.90
7325;DHT22;3703;48.016;7.802;2023-04-25T10:53:33;15.30;99.90
7325;DHT22;3703;48.016;7.802;2023-04-25T10:56:23;15.40;99.90
7325;DHT22;3703;48.016;7.802;2023-04-25T10:59:13;15.10;99.90
7325;DHT22;3703;48.016;7.802;2023-04-25T11:02:11;15.20;99.90
7325;DHT22;3703;48.016;7.802;2023-04-25T11:04:59;15.60;99.90
7325;DHT22;3703;48.016;7.802;2023-04-25T11:07:50;15.40;99.90
7325;DHT22;3703;48.016;7.802;2023-04-25T11:10:40;15.30;99.90
7325;DHT22;3703;48.016;7.802;2023-04-25T11:13:31;15.70;99.90
7325;DHT22;3703;48.016;7.802;2023-04-25T11:16:18;16.50;99.90
7325;DHT22;3703;48.016;7.802;2023-04-25T11:19:06;16.90;99.90
7325;DHT22;3703;48.016;7.802;2023-04-25T11:21:55;17.40;99.90
7325;DHT22;3703;48.016;7.802;2023-04-25T11:24:43;17.70;99.90
7325;DHT22;3703;48.016;7.802;2023-04-25T11:27:31;18.00;99.90
7325;DHT22;3703;48.016;7.802;2023-04-25T11:30:21;17.70;99.90
7325;DHT22;3703;48.016;7.802;2023-04-25T11:33:09;17.50;99.90
7325;DHT22;3703;48.016;7.802;2023-04-25T11:35:58;17.00;99.90
7325;DHT22;3703;48.016;7.802;2023-04-25T11:38:45;16.40;99.90
7325;DHT22;3703;48.016;7.802;2023-04-25T11:41:33;16.10;99.90
7325;DHT22;3703;48.016;7.802;2023-04-25T11:44:21;15.60;99.90
7325;DHT22;3703;48.016;7.802;2023-04-25T11:47:10;14.30;99.90
7325;DHT22;3703;48.016;7.802;2023-04-25T11:49:58;14.10;99.90
7325;DHT22;3703;48.016;7.802;2023-04-25T11:52:47;14.60;99.90
7325;DHT22;3703;48.016;7.802;2023-04-25T11:55:36;14.70;99.90
7325;DHT22;3703;48.016;7.802;2023-04-25T11:58:25;14.20;99.90
7325;DHT22;3703;48.016;7.802;2023-04-25T12:01:12;13.10;99.90
7325;DHT22;3703;48.016;7.802;2023-04-25T12:04:15;12.40;99.90
7325;DHT22;3703;48.016;7.802;2023-04-25T12:07:03;12.90;99.90
7325;DHT22;3703;48.016;7.802;2023-04-25T12:09:52;14.10;99.90
7325;DHT22;3703;48.016;7.802;2023-04-25T12:12:42;14.50;99.90
7325;DHT22;3703;48.016;7.802;2023-04-25T12:15:33;14.20;99.90
7325;DHT22;3703;48.016;7.802;2023-04-25T12:18:22;13.70;99.90
7325;DHT22;3703;48.016;7.802;2023-04-25T12:21:12;14.90;99.90
7325;DHT22;3703;48.016;7.802;2023-04-25T12:24:16;15.90;99.90
7325;DHT22;3703;48.016;7.802;2023-04-25T12:27:06;16.20;99.90
7325;DHT22;3703;48.016;7.802;2023-04-25T12:29:55;15.80;99.90
7325;DHT22;3703;48.016;7.802;2023-04-25T12:32:43;15.40;99.90
7325;DHT22;3703;48.016;7.802;2023-04-25T12:35:32;14.50;99.90
7325;DHT22;3703;48.016;7.802;2023-04-25T12:38:25;14.00;99.90
7325;DHT22;3703;48.016;7.802;2023-04-25T12:41:15;14.30;99.90
7325;DHT22;3703;48.016;7.802;2023-04-25T12:44:02;14.20;99.90
7325;DHT22;3703;48.016;7.802;2023-04-25T12:46:50;14.60;99.90
7325;DHT22;3703;48.016;7.802;2023-04-25T12:49:38;15.20;99.90
7325;DHT22;3703;48.016;7.802;2023-04-25T12:52:26;15.00;99.90
7325;DHT22;3703;48.016;7.802;2023-04-25T12:55:15;14.90;99.90
7325;DHT22;3703;48.016;7.802;2023-04-25T12:58:02;15.00;99.90
7325;DHT22;3703;48.016;7.802;2023-04-25T13:00:50;14.50;99.90
7325;DHT22;3703;48.016;7.802;2023-04-25T13:03:37;15.10;99.90
7325;DHT22;3703;48.016;7.802;2023-04-25T13:06:25;15.40;99.90
7325;DHT22;3703;48.016;7.802;2023-04-25T13:09:13;16.10;99.90
7325;DHT22;3703;48.016;7.802;2023-04-25T13:12:03;16.20;99.90
7325;DHT22;3703;48.016;7.802;2023-04-25T13:14:51;15.00;99.90
7325;DHT22;3703;48.016;7.802;2023-04-25T13:17:39;14.90;99.90
7325;DHT22;3703;48.016;7.802;2023-04-25T13:20:26;15.50;99.90
7325;DHT22;3703;48.016;7.802;2023-04-25T13:23:14;16.20;99.90
7325;DHT22;3703;48.016;7.802;2023-04-25T13:26:01;15.60;99.90
7325;DHT22;3703;48.016;7.802;2023-04-25T13:28:50;14.90;99.90
7325;DHT22;3703;48.016;7.802;2023-04-25T13:31:38;14.90;99.90
7325;DHT22;3703;48.016;7.802;2023-04-25T13:34:26;14.60;99.90
7325;DHT22;3703;48.016;7.802;2023-04-25T13:37:13;14.30;99.90
7325;DHT22;3703;48.016;7.802;2023-04-25T13:40:02;15.40;99.90
7325;DHT22;3703;48.016;7.802;2023-04-25T13:42:51;16.70;99.90
7325;DHT22;3703;48.016;7.802;2023-04-25T13:45:40;16.60;99.90
7325;DHT22;3703;48.016;7.802;2023-04-25T13:48:27;16.40;99.90
7325;DHT22;3703;48.016;7.802;2023-04-25T13:51:15;16.30;99.90
7325;DHT22;3703;48.016;7.802;2023-04-25T13:54:03;16.70;99.90
7325;DHT22;3703;48.016;7.802;2023-04-25T13:56:51;16.70;99.90
7325;DHT22;3703;48.016;7.802;2023-04-25T13:59:41;16.30;99.90
7325;DHT22;3703;48.016;7.802;2023-04-25T14:02:30;16.50;99.90
7325;DHT22;3703;48.016;7.802;2023-04-25T14:05:18;18.00;99.90
7325;DHT22;3703;48.016;7.802;2023-04-25T14:08:07;16.60;99.90
7325;DHT22;3703;48.016;7.802;2023-04-25T14:10:55;16.70;99.90
7325;DHT22;3703;48.016;7.802;2023-04-25T14:13:43;16.60;99.90
7325;DHT22;3703;48.016;7.802;2023-04-25T14:16:30;16.90;99.90
7325;DHT22;3703;48.016;7.802;2023-04-25T14:19:19;16.50;99.90
7325;DHT22;3703;48.016;7.802;2023-04-25T14:22:07;16.40;99.90
7325;DHT22;3703;48.016;7.802;2023-04-25T14:24:55;16.30;99.90
7325;DHT22;3703;48.016;7.802;2023-04-25T14:27:42;15.90;99.90
7325;DHT22;3703;48.016;7.802;2023-04-25T14:30:33;15.80;99.90
7325;DHT22;3703;48.016;7.802;2023-04-25T14:33:20;15.70;99.90
7325;DHT22;3703;48.016;7.802;2023-04-25T14:36:10;15.40;99.90
7325;DHT22;3703;48.016;7.802;2023-04-25T14:38:58;15.60;99.90
7325;DHT22;3703;48.016;7.802;2023-04-25T14:41:46;15.90;99.90
7325;DHT22;3703;48.016;7.802;2023-04-25T14:44:34;15.70;99.90
7325;DHT22;3703;48.016;7.802;2023-04-25T14:47:21;15.30;99.90
7325;DHT22;3703;48.016;7.802;2023-04-25T14:50:10;15.10;99.90
7325;DHT22;3703;48.016;7.802;2023-04-25T14:52:59;15.00;99.90
7325;DHT22;3703;48.016;7.802;2023-04-25T14:55:46;14.70;99.90
7325;DHT22;3703;48.016;7.802;2023-04-25T14:58:34;13.90;99.90
7325;DHT22;3703;48.016;7.802;2023-04-25T15:01:22;13.50;99.90
7325;DHT22;3703;48.016;7.802;2023-04-25T15:04:09;13.20;99.90
7325;DHT22;3703;48.016;7.802;2023-04-25T15:06:58;13.30;99.90
7325;DHT22;3703;48.016;7.802;2023-04-25T15:09:47;13.30;99.90
7325;DHT22;3703;48.016;7.802;2023-04-25T15:12:35;14.20;99.90
7325;DHT22;3703;48.016;7.802;2023-04-25T15:15:22;13.30;99.90
7325;DHT22;3703;48.016;7.802;2023-04-25T15:18:10;13.40;99.90
7325;DHT22;3703;48.016;7.802;2023-04-25T15:20:57;13.20;99.90
7325;DHT22;3703;48.016;7.802;2023-04-25T15:23:45;13.30;99.90
7325;DHT22;3703;48.016;7.802;2023-04-25T15:26:34;13.30;99.90
7325;DHT22;3703;48.016;7.802;2023-04-25T15:29:21;13.10;99.90
7325;DHT22;3703;48.016;7.802;2023-04-25T15:32:09;13.10;99.90
7325;DHT22;3703;48.016;7.802;2023-04-25T15:34:57;13.00;99.90
7325;DHT22;3703;48.016;7.802;2023-04-25T15:37:44;12.90;99.90
7325;DHT22;3703;48.016;7.802;2023-04-25T15:40:32;12.70;99.90
7325;DHT22;3703;48.016;7.802;2023-04-25T15:43:20;12.90;99.90
7325;DHT22;3703;48.016;7.802;2023-04-25T15:46:08;13.20;99.90
7325;DHT22;3703;48.016;7.802;2023-04-25T15:48:56;13.20;99.90
7325;DHT22;3703;48.016;7.802;2023-04-25T15:51:44;13.50;99.90
7325;DHT22;3703;48.016;7.802;2023-04-25T15:54:31;13.50;99.90
7325;DHT22;3703;48.016;7.802;2023-04-25T15:57:20;13.20;99.90
7325;DHT22;3703;48.016;7.802;2023-04-25T16:00:10;13.40;99.90
7325;DHT22;3703;48.016;7.802;2023-04-25T16:03:00;13.50;99.90
7325;DHT22;3703;48.016;7.802;2023-04-25T16:05:48;13.50;99.90
7325;DHT22;3703;48.016;7.802;2023-04-25T16:08:36;13.50;99.90
7325;DHT22;3703;48.016;7.802;2023-04-25T16:11:23;13.30;99.90
7325;DHT22;3703;48.016;7.802;2023-04-25T16:14:11;13.50;99.90
7325;DHT22;3703;48.016;7.802;2023-04-25T16:17:00;13.70;99.90
7325;DHT22;3703;48.016;7.802;2023-04-25T16:19:48;13.90;99.90
7325;DHT22;3703;48.016;7.802;2023-04-25T16:22:35;14.10;99.90
7325;DHT22;3703;48.016;7.802;2023-04-25T16:25:23;14.00;99.90
7325;DHT22;3703;48.016;7.802;2023-04-25T16:28:11;13.80;99.90
7325;DHT22;3703;48.016;7.802;2023-04-25T16:30:59;13.50;99.90
7325;DHT22;3703;48.016;7.802;2023-04-25T16:33:48;12.80;99.90
7325;DHT22;3703;48.016;7.802;2023-04-25T16:36:35;12.40;99.90
7325;DHT22;3703;48.016;7.802;2023-04-25T16:39:23;12.10;99.90
7325;DHT22;3703;48.016;7.802;2023-04-25T16:42:10;12.00;99.90
7325;DHT22;3703;48.016;7.802;2023-04-25T16:44:58;12.30;99.90
7325;DHT22;3703;48.016;7.802;2023-04-25T16:47:45;12.50;99.90
7325;DHT22;3703;48.016;7.802;2023-04-25T16:50:34;12.50;99.90
7325;DHT22;3703;48.016;7.802;2023-04-25T16:53:22;11.90;99.90
7325;DHT22;3703;48.016;7.802;2023-04-25T16:56:10;13.70;99.90
7325;DHT22;3703;48.016;7.802;2023-04-25T16:58:57;11.10;99.90
7325;DHT22;3703;48.016;7.802;2023-04-25T17:07:22;11.30;99.90
7325;DHT22;3703;48.016;7.802;2023-04-25T17:10:10;11.20;99.90
7325;DHT22;3703;48.016;7.802;2023-04-25T17:12:57;11.20;99.90
7325;DHT22;3703;48.016;7.802;2023-04-25T17:15:45;11.00;99.90
7325;DHT22;3703;48.016;7.802;2023-04-25T17:18:32;11.30;99.90
7325;DHT22;3703;48.016;7.802;2023-04-25T17:21:20;11.40;99.90
7325;DHT22;3703;48.016;7.802;2023-04-25T17:24:09;11.50;99.90
7325;DHT22;3703;48.016;7.802;2023-04-25T17:26:56;11.70;99.90
7325;DHT22;3703;48.016;7.802;2023-04-25T17:29:44;12.00;99.90
7325;DHT22;3703;48.016;7.802;2023-04-25T17:32:32;11.70;99.90
7325;DHT22;3703;48.016;7.802;2023-04-25T17:40:57;10.90;99.90
7325;DHT22;3703;48.016;7.802;2023-04-25T17:57:46;11.00;99.90
7325;DHT22;3703;48.016;7.802;2023-04-25T18:00:33;10.70;99.90
7325;DHT22;3703;48.016;7.802;2023-04-25T18:03:24;11.40;99.90
7325;DHT22;3703;48.016;7.802;2023-04-25T18:06:11;11.20;99.90
7325;DHT22;3703;48.016;7.802;2023-04-25T18:08:59;11.50;99.90
7325;DHT22;3703;48.016;7.802;2023-04-25T18:11:48;11.60;99.90
7325;DHT22;3703;48.016;7.802;2023-04-25T18:14:39;11.90;99.90
7325;DHT22;3703;48.016;7.802;2023-04-25T18:17:27;12.10;99.90
7325;DHT22;3703;48.016;7.802;2023-04-25T18:20:15;12.10;99.90
7325;DHT22;3703;48.016;7.802;2023-04-25T18:23:02;11.00;99.90
7325;DHT22;3703;48.016;7.802;2023-04-25T18:28:39;10.70;99.90
7325;DHT22;3703;48.016;7.802;2023-04-25T18:31:27;10.40;99.90
7325;DHT22;3703;48.016;7.802;2023-04-25T18:48:19;11.00;99.90
7325;DHT22;3703;48.016;7.802;2023-04-25T18:53:54;11.70;99.90
7325;DHT22;3703;48.016;7.802;2023-04-25T18:59:30;12.30;99.90
7325;DHT22;3703;48.016;7.802;2023-04-25T19:02:17;12.10;99.90
7325;DHT22;3703;48.016;7.802;2023-04-25T19:05:07;12.10;99.90
7325;DHT22;3703;48.016;7.802;2023-04-25T19:07:56;11.40;99.90
7325;DHT22;3703;48.016;7.802;2023-04-25T19:13:32;10.70;99.90
7325;DHT22;3703;48.016;7.802;2023-04-25T19:19:08;10.90;99.90
7325;DHT22;3703;48.016;7.802;2023-04-25T19:21:58;10.70;99.90
7325;DHT22;3703;48.016;7.802;2023-04-25T19:38:46;10.20;99.90
7325;DHT22;3703;48.016;7.802;2023-04-25T19:41:35;10.50;99.90
7325;DHT22;3703;48.016;7.802;2023-04-25T19:55:36;10.40;99.90
7325;DHT22;3703;48.016;7.802;2023-04-25T20:20:52;11.00;99.90
7325;DHT22;3703;48.016;7.802;2023-04-25T20:23:40;11.00;99.90
7325;DHT22;3703;48.016;7.802;2023-04-25T20:26:29;11.70;99.90
7325;DHT22;3703;48.016;7.802;2023-04-25T20:29:20;11.30;99.90
7325;DHT22;3703;48.016;7.802;2023-04-25T20:32:07;10.90;99.90
7325;DHT22;3703;48.016;7.802;2023-04-25T20:34:55;11.30;99.90
7325;DHT22;3703;48.016;7.802;2023-04-25T20:37:43;11.80;99.90
7325;DHT22;3703;48.016;7.802;2023-04-25T20:40:31;11.70;99.90
7325;DHT22;3703;48.016;7.802;2023-04-25T20:46:08;11.40;99.90
7325;DHT22;3703;48.016;7.802;2023-04-25T20:48:56;11.40;99.90
7325;DHT22;3703;48.016;7.802;2023-04-25T20:51:44;11.50;99.90
7325;DHT22;3703;48.016;7.802;2023-04-25T21:00:09;12.10;99.90
7325;DHT22;3703;48.016;7.802;2023-04-25T21:03:04;11.80;99.90
7325;DHT22;3703;48.016;7.802;2023-04-25T21:05:52;12.10;99.90
7325;DHT22;3703;48.016;7.802;2023-04-25T21:08:40;11.90;99.90
7325;DHT22;3703;48.016;7.802;2023-04-25T21:11:28;11.90;99.90
7325;DHT22;3703;48.016;7.802;2023-04-25T21:14:15;11.90;99.90
7325;DHT22;3703;48.016;7.802;2023-04-25T21:19:53;11.70;99.90
7325;DHT22;3703;48.016;7.802;2023-04-25T21:22:41;11.90;99.90
7325;DHT22;3703;48.016;7.802;2023-04-25T21:25:33;11.80;99.90
7325;DHT22;3703;48.016;7.802;2023-04-25T21:28:21;12.00;99.90
7325;DHT22;3703;48.016;7.802;2023-04-25T21:31:09;11.50;99.90
7325;DHT22;3703;48.016;7.802;2023-04-25T21:36:46;11.10;99.90
7325;DHT22;3703;48.016;7.802;2023-04-25T21:45:09;11.40;99.90
7325;DHT22;3703;48.016;7.802;2023-04-25T21:47:58;11.50;99.90
7325;DHT22;3703;48.016;7.802;2023-04-25T21:50:46;11.50;99.90
7325;DHT22;3703;48.016;7.802;2023-04-25T21:53:35;11.40;99.90
7325;DHT22;3703;48.016;7.802;2023-04-25T22:10:23;11.40;99.90
7325;DHT22;3703;48.016;7.802;2023-04-25T22:16:00;11.50;99.90
7325;DHT22;3703;48.016;7.802;2023-04-25T22:30:05;11.30;99.90
7325;DHT22;3703;48.016;7.802;2023-04-25T22:32:54;11.30;99.90
7325;DHT22;3703;48.016;7.802;2023-04-25T22:35:41;11.40;99.90
7325;DHT22;3703;48.016;7.802;2023-04-25T22:44:08;11.20;99.90
7325;DHT22;3703;48.016;7.802;2023-04-25T23:00:57;10.90;99.90